sensor_id;sensor_type;location;lat;lon;timestamp;pressure;altitude;pressure_sealevel;temperature
13410;BMP180;6775;49.574;11.170;2023-08-08T00:01:59;97647.16;;;11.91
13410;BMP180;6775;49.574;11.170;2023-08-08T00:04:28;97647.16;;;11.91
13410;BMP180;6775;49.574;11.170;2023-08-08T00:06:56;97641.16;;;11.91
13410;BMP180;6775;49.574;11.170;2023-08-08T00:09:24;97642.94;;;11.90
13410;BMP180;6775;49.574;11.170;2023-08-08T00:11:52;97641.53;;;11.86
13410;BMP180;6775;49.574;11.170;2023-08-08T00:14:22;97634.06;;;11.83
13410;BMP180;6775;49.574;11.170;2023-08-08T00:16:50;97638.81;;;11.78
13410;BMP180;6775;49.574;11.170;2023-08-08T00:19:18;97642.31;;;11.77
13410;BMP180;6775;49.574;11.170;2023-08-08T00:21:46;97634.72;;;11.76
13410;BMP180;6775;49.574;11.170;2023-08-08T00:24:14;97638.34;;;11.73
13410;BMP180;6775;49.574;11.170;2023-08-08T00:26:42;97642.09;;;11.69
13410;BMP180;6775;49.574;11.170;2023-08-08T00:29:10;97633.81;;;11.66
13410;BMP180;6775;49.574;11.170;2023-08-08T00:31:40;97635.59;;;11.65
13410;BMP180;6775;49.574;11.170;2023-08-08T00:34:08;97623.66;;;11.64
13410;BMP180;6775;49.574;11.170;2023-08-08T00:36:36;97623.91;;;11.61
13410;BMP180;6775;49.574;11.170;2023-08-08T00:39:04;97625.78;;;11.59
13410;BMP180;6775;49.574;11.170;2023-08-08T00:41:32;97622.97;;;11.62
13410;BMP180;6775;49.574;11.170;2023-08-08T00:44:00;97615.25;;;11.62
13410;BMP180;6775;49.574;11.170;2023-08-08T00:46:29;97622.00;;;11.63
13410;BMP180;6775;49.574;11.170;2023-08-08T00:48:58;97620.97;;;11.66
13410;BMP180;6775;49.574;11.170;2023-08-08T00:51:27;97618.38;;;11.66
13410;BMP180;6775;49.574;11.170;2023-08-08T00:53:56;97623.16;;;11.70
13410;BMP180;6775;49.574;11.170;2023-08-08T00:56:25;97617.75;;;11.73
13410;BMP180;6775;49.574;11.170;2023-08-08T00:58:54;97611.53;;;11.76
13410;BMP180;6775;49.574;11.170;2023-08-08T01:01:22;97614.78;;;11.78
13410;BMP180;6775;49.574;11.170;2023-08-08T01:03:50;97608.56;;;11.80
13410;BMP180;6775;49.574;11.170;2023-08-08T01:06:29;97613.47;;;11.83
13410;BMP180;6775;49.574;11.170;2023-08-08T01:09:05;97607.66;;;11.81
13410;BMP180;6775;49.574;11.170;2023-08-08T01:11:36;97612.09;;;11.79
13410;BMP180;6775;49.574;11.170;2023-08-08T01:14:07;97616.06;;;11.83
13410;BMP180;6775;49.574;11.170;2023-08-08T01:16:37;97609.59;;;11.89
13410;BMP180;6775;49.574;11.170;2023-08-08T01:19:07;97608.81;;;11.98
13410;BMP180;6775;49.574;11.170;2023-08-08T01:21:39;97607.63;;;12.02
13410;BMP180;6775;49.574;11.170;2023-08-08T01:24:23;97603.59;;;12.08
13410;BMP180;6775;49.574;11.170;2023-08-08T01:26:52;97606.72;;;12.12
13410;BMP180;6775;49.574;11.170;2023-08-08T01:29:21;97596.84;;;12.17
13410;BMP180;6775;49.574;11.170;2023-08-08T01:31:49;97602.56;;;12.20
13410;BMP180;6775;49.574;11.170;2023-08-08T01:34:17;97605.81;;;12.22
13410;BMP180;6775;49.574;11.170;2023-08-08T01:36:52;97613.19;;;12.27
13410;BMP180;6775;49.574;11.170;2023-08-08T01:39:27;97610.47;;;12.28
13410;BMP180;6775;49.574;11.170;2023-08-08T01:41:59;97620.50;;;12.31
13410;BMP180;6775;49.574;11.170;2023-08-08T01:44:29;97617.94;;;12.31
13410;BMP180;6775;49.574;11.170;2023-08-08T01:46:58;97612.91;;;12.30
13410;BMP180;6775;49.574;11.170;2023-08-08T01:49:26;97617.22;;;12.29
13410;BMP180;6775;49.574;11.170;2023-08-08T01:51:54;97620.66;;;12.30
13410;BMP180;6775;49.574;11.170;2023-08-08T01:54:24;97617.22;;;12.29
13410;BMP180;6775;49.574;11.170;2023-08-08T01:56:52;97614.78;;;12.28
13410;BMP180;6775;49.574;11.170;2023-08-08T01:59:20;97608.16;;;12.25
13410;BMP180;6775;49.574;11.170;2023-08-08T02:01:48;97603.09;;;12.24
13410;BMP180;6775;49.574;11.170;2023-08-08T02:04:16;97605.13;;;12.20
13410;BMP180;6775;49.574;11.170;2023-08-08T02:06:44;97606.19;;;12.18
13410;BMP180;6775;49.574;11.170;2023-08-08T02:09:12;97596.28;;;12.13
13410;BMP180;6775;49.574;11.170;2023-08-08T02:11:43;97603.34;;;12.11
13410;BMP180;6775;49.574;11.170;2023-08-08T02:14:11;97608.75;;;12.08
13410;BMP180;6775;49.574;11.170;2023-08-08T02:16:39;97607.09;;;12.07
13410;BMP180;6775;49.574;11.170;2023-08-08T02:19:09;97595.41;;;12.04
13410;BMP180;6775;49.574;11.170;2023-08-08T02:21:37;97599.75;;;12.03
13410;BMP180;6775;49.574;11.170;2023-08-08T02:24:05;97603.13;;;12.04
13410;BMP180;6775;49.574;11.170;2023-08-08T02:26:33;97601.41;;;12.04
13410;BMP180;6775;49.574;11.170;2023-08-08T02:29:02;97600.31;;;12.07
13410;BMP180;6775;49.574;11.170;2023-08-08T02:31:30;97605.34;;;12.08
13410;BMP180;6775;49.574;11.170;2023-08-08T02:33:58;97610.47;;;12.08
13410;BMP180;6775;49.574;11.170;2023-08-08T02:36:26;97604.66;;;12.06
13410;BMP180;6775;49.574;11.170;2023-08-08T02:38:54;97614.03;;;12.07
13410;BMP180;6775;49.574;11.170;2023-08-08T02:41:22;97613.91;;;12.08
13410;BMP180;6775;49.574;11.170;2023-08-08T02:43:50;97605.66;;;12.14
13410;BMP180;6775;49.574;11.170;2023-08-08T02:46:20;97599.84;;;12.22
13410;BMP180;6775;49.574;11.170;2023-08-08T02:48:48;97594.75;;;12.31
13410;BMP180;6775;49.574;11.170;2023-08-08T02:51:16;97596.94;;;12.36
13410;BMP180;6775;49.574;11.170;2023-08-08T02:53:44;97596.41;;;12.42
13410;BMP180;6775;49.574;11.170;2023-08-08T02:56:12;97597.91;;;12.44
13410;BMP180;6775;49.574;11.170;2023-08-08T02:58:40;97601.28;;;12.45
13410;BMP180;6775;49.574;11.170;2023-08-08T03:01:08;97592.63;;;12.46
13410;BMP180;6775;49.574;11.170;2023-08-08T03:03:37;97587.34;;;12.47
13410;BMP180;6775;49.574;11.170;2023-08-08T03:06:05;97583.91;;;12.47
13410;BMP180;6775;49.574;11.170;2023-08-08T03:08:33;97583.69;;;12.50
13410;BMP180;6775;49.574;11.170;2023-08-08T03:11:01;97578.53;;;12.50
13410;BMP180;6775;49.574;11.170;2023-08-08T03:13:29;97580.00;;;12.52
13410;BMP180;6775;49.574;11.170;2023-08-08T03:15:58;97584.22;;;12.53
13410;BMP180;6775;49.574;11.170;2023-08-08T03:18:26;97585.88;;;12.54
13410;BMP180;6775;49.574;11.170;2023-08-08T03:20:55;97589.25;;;12.55
13410;BMP180;6775;49.574;11.170;2023-08-08T03:23:23;97590.75;;;12.57
13410;BMP180;6775;49.574;11.170;2023-08-08T03:25:51;97590.63;;;12.58
13410;BMP180;6775;49.574;11.170;2023-08-08T03:28:19;97578.81;;;12.56
13410;BMP180;6775;49.574;11.170;2023-08-08T03:30:47;97597.66;;;12.57
13410;BMP180;6775;49.574;11.170;2023-08-08T03:33:15;97591.97;;;12.53
13410;BMP180;6775;49.574;11.170;2023-08-08T03:35:43;97595.59;;;12.51
13410;BMP180;6775;49.574;11.170;2023-08-08T03:38:13;97597.50;;;12.49
13410;BMP180;6775;49.574;11.170;2023-08-08T03:40:41;97607.81;;;12.49
13410;BMP180;6775;49.574;11.170;2023-08-08T03:43:09;97595.59;;;12.51
13410;BMP180;6775;49.574;11.170;2023-08-08T03:45:37;97590.44;;;12.51
13410;BMP180;6775;49.574;11.170;2023-08-08T03:48:06;97592.91;;;12.52
13410;BMP180;6775;49.574;11.170;2023-08-08T03:50:34;97585.16;;;12.52
13410;BMP180;6775;49.574;11.170;2023-08-08T03:53:02;97591.16;;;12.53
13410;BMP180;6775;49.574;11.170;2023-08-08T03:55:33;97586.94;;;12.52
13410;BMP180;6775;49.574;11.170;2023-08-08T03:58:01;97589.38;;;12.53
13410;BMP180;6775;49.574;11.170;2023-08-08T04:00:29;97594.53;;;12.53
13410;BMP180;6775;49.574;11.170;2023-08-08T04:02:58;97591.28;;;12.51
13410;BMP180;6775;49.574;11.170;2023-08-08T04:05:26;97594.09;;;12.48
13410;BMP180;6775;49.574;11.170;2023-08-08T04:07:54;97592.34;;;12.49
13410;BMP180;6775;49.574;11.170;2023-08-08T04:10:22;97588.28;;;12.46
13410;BMP180;6775;49.574;11.170;2023-08-08T04:12:52;97596.69;;;12.48
13410;BMP180;6775;49.574;11.170;2023-08-08T04:15:20;97596.81;;;12.47
13410;BMP180;6775;49.574;11.170;2023-08-08T04:17:48;97597.78;;;12.46
13410;BMP180;6775;49.574;11.170;2023-08-08T04:20:16;97601.03;;;12.48
13410;BMP180;6775;49.574;11.170;2023-08-08T04:22:44;97598.59;;;12.46
13410;BMP180;6775;49.574;11.170;2023-08-08T04:25:12;97603.75;;;12.46
13410;BMP180;6775;49.574;11.170;2023-08-08T04:27:40;97608.09;;;12.46
13410;BMP180;6775;49.574;11.170;2023-08-08T04:30:10;97601.03;;;12.48
13410;BMP180;6775;49.574;11.170;2023-08-08T04:32:38;97599.16;;;12.50
13410;BMP180;6775;49.574;11.170;2023-08-08T04:35:07;97600.75;;;12.51
13410;BMP180;6775;49.574;11.170;2023-08-08T04:37:35;97604.03;;;12.53
13410;BMP180;6775;49.574;11.170;2023-08-08T04:40:04;97582.31;;;12.55
13410;BMP180;6775;49.574;11.170;2023-08-08T04:42:32;97602.81;;;12.57
13410;BMP180;6775;49.574;11.170;2023-08-08T04:45:00;97597.38;;;12.59
13410;BMP180;6775;49.574;11.170;2023-08-08T04:47:30;97604.88;;;12.62
13410;BMP180;6775;49.574;11.170;2023-08-08T04:49:58;97602.19;;;12.64
13410;BMP180;6775;49.574;11.170;2023-08-08T04:52:26;97605.56;;;12.64
13410;BMP180;6775;49.574;11.170;2023-08-08T04:54:54;97599.72;;;12.62
13410;BMP180;6775;49.574;11.170;2023-08-08T04:57:22;97601.34;;;12.63
13410;BMP180;6775;49.574;11.170;2023-08-08T04:59:50;97602.31;;;12.62
13410;BMP180;6775;49.574;11.170;2023-08-08T05:02:19;97603.00;;;12.64
13410;BMP180;6775;49.574;11.170;2023-08-08T05:04:48;97601.06;;;12.66
13410;BMP180;6775;49.574;11.170;2023-08-08T05:07:16;97596.19;;;12.63
13410;BMP180;6775;49.574;11.170;2023-08-08T05:09:44;97597.56;;;12.67
13410;BMP180;6775;49.574;11.170;2023-08-08T05:12:12;97598.09;;;12.71
13410;BMP180;6775;49.574;11.170;2023-08-08T05:14:40;97585.91;;;12.73
13410;BMP180;6775;49.574;11.170;2023-08-08T05:17:08;97605.47;;;12.75
13410;BMP180;6775;49.574;11.170;2023-08-08T05:19:36;97601.91;;;12.76
13410;BMP180;6775;49.574;11.170;2023-08-08T05:22:06;97610.09;;;12.81
13410;BMP180;6775;49.574;11.170;2023-08-08T05:24:34;97592.75;;;12.83
13410;BMP180;6775;49.574;11.170;2023-08-08T05:27:03;97595.88;;;12.87
13410;BMP180;6775;49.574;11.170;2023-08-08T05:29:31;97596.97;;;12.94
13410;BMP180;6775;49.574;11.170;2023-08-08T05:31:59;97591.66;;;12.95
13410;BMP180;6775;49.574;11.170;2023-08-08T05:34:28;97606.88;;;12.98
13410;BMP180;6775;49.574;11.170;2023-08-08T05:36:58;97596.97;;;13.03
13410;BMP180;6775;49.574;11.170;2023-08-08T05:39:44;97599.81;;;13.09
13410;BMP180;6775;49.574;11.170;2023-08-08T05:42:12;97588.16;;;13.15
13410;BMP180;6775;49.574;11.170;2023-08-08T05:44:40;97594.41;;;13.22
13410;BMP180;6775;49.574;11.170;2023-08-08T05:47:09;97600.66;;;13.19
13410;BMP180;6775;49.574;11.170;2023-08-08T05:49:38;97597.78;;;13.22
13410;BMP180;6775;49.574;11.170;2023-08-08T05:52:08;97595.50;;;13.29
13410;BMP180;6775;49.574;11.170;2023-08-08T05:54:37;97596.59;;;13.36
13410;BMP180;6775;49.574;11.170;2023-08-08T05:57:07;97597.41;;;13.46
13410;BMP180;6775;49.574;11.170;2023-08-08T05:59:35;97594.00;;;13.55
13410;BMP180;6775;49.574;11.170;2023-08-08T06:02:03;97599.53;;;13.59
13410;BMP180;6775;49.574;11.170;2023-08-08T06:04:32;97597.09;;;13.67
13410;BMP180;6775;49.574;11.170;2023-08-08T06:07:00;97595.31;;;13.77
13410;BMP180;6775;49.574;11.170;2023-08-08T06:09:28;97603.22;;;13.85
13410;BMP180;6775;49.574;11.170;2023-08-08T06:11:58;97603.59;;;13.90
13410;BMP180;6775;49.574;11.170;2023-08-08T06:14:27;97602.50;;;13.93
13410;BMP180;6775;49.574;11.170;2023-08-08T06:16:55;97599.22;;;14.00
13410;BMP180;6775;49.574;11.170;2023-08-08T06:19:23;97606.00;;;14.11
13410;BMP180;6775;49.574;11.170;2023-08-08T06:21:52;97599.59;;;14.24
13410;BMP180;6775;49.574;11.170;2023-08-08T06:24:20;97596.50;;;14.38
13410;BMP180;6775;49.574;11.170;2023-08-08T06:26:48;97596.34;;;14.49
13410;BMP180;6775;49.574;11.170;2023-08-08T06:29:16;97593.44;;;14.61
13410;BMP180;6775;49.574;11.170;2023-08-08T06:31:45;97589.38;;;14.76
13410;BMP180;6775;49.574;11.170;2023-08-08T06:34:13;97591.50;;;14.90
13410;BMP180;6775;49.574;11.170;2023-08-08T06:36:41;97587.06;;;15.00
13410;BMP180;6775;49.574;11.170;2023-08-08T06:39:09;97580.16;;;15.08
13410;BMP180;6775;49.574;11.170;2023-08-08T06:41:38;97586.97;;;15.18
13410;BMP180;6775;49.574;11.170;2023-08-08T06:44:07;97586.81;;;15.20
13410;BMP180;6775;49.574;11.170;2023-08-08T06:46:35;97590.00;;;15.31
13410;BMP180;6775;49.574;11.170;2023-08-08T06:49:05;97579.22;;;15.44
13410;BMP180;6775;49.574;11.170;2023-08-08T06:51:33;97574.84;;;15.62
13410;BMP180;6775;49.574;11.170;2023-08-08T06:54:02;97581.72;;;15.70
13410;BMP180;6775;49.574;11.170;2023-08-08T06:56:30;97571.44;;;15.78
13410;BMP180;6775;49.574;11.170;2023-08-08T06:58:58;97571.63;;;15.85
13410;BMP180;6775;49.574;11.170;2023-08-08T07:01:26;97573.09;;;15.87
13410;BMP180;6775;49.574;11.170;2023-08-08T07:03:54;97564.06;;;15.91
13410;BMP180;6775;49.574;11.170;2023-08-08T07:06:23;97567.53;;;16.00
13410;BMP180;6775;49.574;11.170;2023-08-08T07:08:52;97563.19;;;16.08
13410;BMP180;6775;49.574;11.170;2023-08-08T07:11:20;97567.75;;;16.14
13410;BMP180;6775;49.574;11.170;2023-08-08T07:13:49;97568.19;;;16.27
13410;BMP180;6775;49.574;11.170;2023-08-08T07:16:17;97568.03;;;16.36
13410;BMP180;6775;49.574;11.170;2023-08-08T07:18:45;97569.56;;;16.47
13410;BMP180;6775;49.574;11.170;2023-08-08T07:21:14;97563.75;;;16.53
13410;BMP180;6775;49.574;11.170;2023-08-08T07:23:44;97561.66;;;16.56
13410;BMP180;6775;49.574;11.170;2023-08-08T07:26:12;97550.16;;;16.66
13410;BMP180;6775;49.574;11.170;2023-08-08T07:28:40;97551.84;;;16.75
13410;BMP180;6775;49.574;11.170;2023-08-08T07:31:08;97550.88;;;16.84
13410;BMP180;6775;49.574;11.170;2023-08-08T07:33:36;97556.06;;;16.92
13410;BMP180;6775;49.574;11.170;2023-08-08T07:36:04;97550.88;;;16.92
13410;BMP180;6775;49.574;11.170;2023-08-08T07:38:32;97549.28;;;17.07
13410;BMP180;6775;49.574;11.170;2023-08-08T07:41:02;97545.78;;;17.24
13410;BMP180;6775;49.574;11.170;2023-08-08T07:43:30;97539.75;;;17.39
13410;BMP180;6775;49.574;11.170;2023-08-08T07:45:58;97543.34;;;17.46
13410;BMP180;6775;49.574;11.170;2023-08-08T07:48:27;97542.84;;;17.59
13410;BMP180;6775;49.574;11.170;2023-08-08T07:50:54;97548.66;;;17.76
13410;BMP180;6775;49.574;11.170;2023-08-08T07:53:23;97540.19;;;17.90
13410;BMP180;6775;49.574;11.170;2023-08-08T07:55:51;97545.06;;;18.01
13410;BMP180;6775;49.574;11.170;2023-08-08T07:58:20;97539.88;;;17.93
13410;BMP180;6775;49.574;11.170;2023-08-08T08:00:52;97542.13;;;18.04
13410;BMP180;6775;49.574;11.170;2023-08-08T08:03:22;97539.19;;;18.15
13410;BMP180;6775;49.574;11.170;2023-08-08T08:05:50;97532.97;;;18.32
13410;BMP180;6775;49.574;11.170;2023-08-08T08:08:18;97526.03;;;18.55
13410;BMP180;6775;49.574;11.170;2023-08-08T08:10:48;97533.59;;;18.72
13410;BMP180;6775;49.574;11.170;2023-08-08T08:13:17;97531.06;;;18.86
13410;BMP180;6775;49.574;11.170;2023-08-08T08:15:47;97528.34;;;19.02
13410;BMP180;6775;49.574;11.170;2023-08-08T08:18:15;97523.13;;;19.10
13410;BMP180;6775;49.574;11.170;2023-08-08T08:20:45;97526.63;;;18.95
13410;BMP180;6775;49.574;11.170;2023-08-08T08:23:13;97523.41;;;18.85
13410;BMP180;6775;49.574;11.170;2023-08-08T08:25:41;97522.88;;;18.97
13410;BMP180;6775;49.574;11.170;2023-08-08T08:28:09;97523.31;;;19.09
13410;BMP180;6775;49.574;11.170;2023-08-08T08:30:37;97522.25;;;19.18
13410;BMP180;6775;49.574;11.170;2023-08-08T08:33:07;97531.81;;;19.25
13410;BMP180;6775;49.574;11.170;2023-08-08T08:35:35;97528.34;;;19.32
13410;BMP180;6775;49.574;11.170;2023-08-08T08:38:04;97518.22;;;19.52
13410;BMP180;6775;49.574;11.170;2023-08-08T08:40:38;97519.34;;;19.72
13410;BMP180;6775;49.574;11.170;2023-08-08T08:43:08;97514.03;;;19.87
13410;BMP180;6775;49.574;11.170;2023-08-08T08:45:38;97516.56;;;19.95
13410;BMP180;6775;49.574;11.170;2023-08-08T08:48:10;97516.44;;;19.89
13410;BMP180;6775;49.574;11.170;2023-08-08T08:50:39;97509.94;;;19.85
13410;BMP180;6775;49.574;11.170;2023-08-08T08:53:07;97508.88;;;19.79
13410;BMP180;6775;49.574;11.170;2023-08-08T08:55:36;97520.50;;;19.55
13410;BMP180;6775;49.574;11.170;2023-08-08T08:58:04;97520.94;;;19.44
13410;BMP180;6775;49.574;11.170;2023-08-08T09:00:34;97517.53;;;19.58
13410;BMP180;6775;49.574;11.170;2023-08-08T09:03:04;97506.69;;;19.83
13410;BMP180;6775;49.574;11.170;2023-08-08T09:05:34;97511.34;;;19.95
13410;BMP180;6775;49.574;11.170;2023-08-08T09:08:03;97518.50;;;20.22
13410;BMP180;6775;49.574;11.170;2023-08-08T09:10:32;97507.72;;;20.54
13410;BMP180;6775;49.574;11.170;2023-08-08T09:13:01;97504.59;;;20.79
13410;BMP180;6775;49.574;11.170;2023-08-08T09:15:31;97496.34;;;20.96
13410;BMP180;6775;49.574;11.170;2023-08-08T09:17:59;97505.81;;;20.97
13410;BMP180;6775;49.574;11.170;2023-08-08T09:20:28;97497.19;;;20.97
13410;BMP180;6775;49.574;11.170;2023-08-08T09:22:57;97504.41;;;20.80
13410;BMP180;6775;49.574;11.170;2023-08-08T09:25:26;97496.72;;;20.58
13410;BMP180;6775;49.574;11.170;2023-08-08T09:27:55;97496.66;;;20.23
13410;BMP180;6775;49.574;11.170;2023-08-08T09:30:23;97501.78;;;20.02
13410;BMP180;6775;49.574;11.170;2023-08-08T09:32:51;97501.25;;;19.92
13410;BMP180;6775;49.574;11.170;2023-08-08T09:35:22;97507.91;;;20.09
13410;BMP180;6775;49.574;11.170;2023-08-08T09:37:53;97490.91;;;20.13
13410;BMP180;6775;49.574;11.170;2023-08-08T09:40:23;97486.84;;;20.25
13410;BMP180;6775;49.574;11.170;2023-08-08T09:42:52;97493.69;;;20.26
13410;BMP180;6775;49.574;11.170;2023-08-08T09:45:20;97488.47;;;20.26
13410;BMP180;6775;49.574;11.170;2023-08-08T09:47:50;97480.47;;;20.27
13410;BMP180;6775;49.574;11.170;2023-08-08T09:50:20;97471.88;;;20.48
13410;BMP180;6775;49.574;11.170;2023-08-08T09:52:48;97465.50;;;20.85
13410;BMP180;6775;49.574;11.170;2023-08-08T09:55:18;97467.13;;;21.28
13410;BMP180;6775;49.574;11.170;2023-08-08T09:57:49;97466.91;;;21.77
13410;BMP180;6775;49.574;11.170;2023-08-08T10:00:18;97459.38;;;21.95
13410;BMP180;6775;49.574;11.170;2023-08-08T10:02:48;97469.59;;;21.90
13410;BMP180;6775;49.574;11.170;2023-08-08T10:05:16;97465.06;;;21.72
13410;BMP180;6775;49.574;11.170;2023-08-08T10:07:45;97462.94;;;21.88
13410;BMP180;6775;49.574;11.170;2023-08-08T10:10:14;97470.06;;;22.00
13410;BMP180;6775;49.574;11.170;2023-08-08T10:12:47;97478.63;;;22.22
13410;BMP180;6775;49.574;11.170;2023-08-08T10:15:15;97456.94;;;22.28
13410;BMP180;6775;49.574;11.170;2023-08-08T10:17:43;97455.63;;;22.11
13410;BMP180;6775;49.574;11.170;2023-08-08T10:20:12;97464.88;;;22.07
13410;BMP180;6775;49.574;11.170;2023-08-08T10:22:46;97470.69;;;22.02
13410;BMP180;6775;49.574;11.170;2023-08-08T10:25:23;97470.44;;;21.97
13410;BMP180;6775;49.574;11.170;2023-08-08T10:28:05;97467.63;;;21.92
13410;BMP180;6775;49.574;11.170;2023-08-08T10:30:54;97469.69;;;22.03
13410;BMP180;6775;49.574;11.170;2023-08-08T10:33:24;97464.09;;;22.13
13410;BMP180;6775;49.574;11.170;2023-08-08T10:36:02;97457.53;;;22.23
13410;BMP180;6775;49.574;11.170;2023-08-08T10:38:42;97455.72;;;22.24
13410;BMP180;6775;49.574;11.170;2023-08-08T10:41:13;97457.09;;;22.20
13410;BMP180;6775;49.574;11.170;2023-08-08T10:43:50;97441.88;;;22.36
13410;BMP180;6775;49.574;11.170;2023-08-08T10:46:27;97446.41;;;22.61
13410;BMP180;6775;49.574;11.170;2023-08-08T10:48:57;97449.09;;;22.93
13410;BMP180;6775;49.574;11.170;2023-08-08T10:51:35;97443.28;;;23.36
13410;BMP180;6775;49.574;11.170;2023-08-08T10:54:05;97434.25;;;23.45
13410;BMP180;6775;49.574;11.170;2023-08-08T10:56:35;97441.09;;;23.53
13410;BMP180;6775;49.574;11.170;2023-08-08T10:59:14;97439.50;;;23.45
13410;BMP180;6775;49.574;11.170;2023-08-08T11:01:46;97430.78;;;23.32
13410;BMP180;6775;49.574;11.170;2023-08-08T11:04:18;97430.78;;;23.32
13410;BMP180;6775;49.574;11.170;2023-08-08T11:06:46;97438.47;;;23.27
13410;BMP180;6775;49.574;11.170;2023-08-08T11:09:17;97424.16;;;23.04
13410;BMP180;6775;49.574;11.170;2023-08-08T11:11:45;97433.75;;;22.78
13410;BMP180;6775;49.574;11.170;2023-08-08T11:14:17;97420.25;;;22.74
13410;BMP180;6775;49.574;11.170;2023-08-08T11:16:48;97435.53;;;22.71
13410;BMP180;6775;49.574;11.170;2023-08-08T11:19:18;97420.81;;;22.63
13410;BMP180;6775;49.574;11.170;2023-08-08T11:21:48;97431.28;;;22.63
13410;BMP180;6775;49.574;11.170;2023-08-08T11:24:16;97424.44;;;22.56
13410;BMP180;6775;49.574;11.170;2023-08-08T11:26:45;97417.19;;;22.71
13410;BMP180;6775;49.574;11.170;2023-08-08T11:29:16;97426.31;;;22.87
13410;BMP180;6775;49.574;11.170;2023-08-08T11:31:44;97423.28;;;22.84
13410;BMP180;6775;49.574;11.170;2023-08-08T11:34:15;97418.00;;;22.65
13410;BMP180;6775;49.574;11.170;2023-08-08T11:36:45;97429.19;;;22.33
13410;BMP180;6775;49.574;11.170;2023-08-08T11:39:13;97428.97;;;22.28
13410;BMP180;6775;49.574;11.170;2023-08-08T11:41:42;97425.50;;;22.21
13410;BMP180;6775;49.574;11.170;2023-08-08T11:44:10;97422.22;;;22.13
13410;BMP180;6775;49.574;11.170;2023-08-08T11:46:45;97425.50;;;22.21
13410;BMP180;6775;49.574;11.170;2023-08-08T11:49:15;97423.25;;;22.18
13410;BMP180;6775;49.574;11.170;2023-08-08T11:51:44;97421.13;;;22.28
13410;BMP180;6775;49.574;11.170;2023-08-08T11:54:13;97415.09;;;22.40
13410;BMP180;6775;49.574;11.170;2023-08-08T11:56:43;97422.00;;;22.54
13410;BMP180;6775;49.574;11.170;2023-08-08T11:59:11;97413.13;;;22.42
13410;BMP180;6775;49.574;11.170;2023-08-08T12:01:41;97420.41;;;22.60
13410;BMP180;6775;49.574;11.170;2023-08-08T12:04:12;97410.31;;;22.50
13410;BMP180;6775;49.574;11.170;2023-08-08T12:06:40;97404.66;;;22.47
13410;BMP180;6775;49.574;11.170;2023-08-08T12:09:12;97397.41;;;22.49
13410;BMP180;6775;49.574;11.170;2023-08-08T12:11:41;97408.31;;;22.52
13410;BMP180;6775;49.574;11.170;2023-08-08T12:14:09;97412.09;;;22.37
13410;BMP180;6775;49.574;11.170;2023-08-08T12:16:38;97401.28;;;22.19
13410;BMP180;6775;49.574;11.170;2023-08-08T12:19:08;97392.84;;;22.17
13410;BMP180;6775;49.574;11.170;2023-08-08T12:21:39;97395.88;;;22.21
13410;BMP180;6775;49.574;11.170;2023-08-08T12:24:07;97393.53;;;22.32
13410;BMP180;6775;49.574;11.170;2023-08-08T12:26:35;97397.41;;;22.42
13410;BMP180;6775;49.574;11.170;2023-08-08T12:29:03;97384.13;;;22.50
13410;BMP180;6775;49.574;11.170;2023-08-08T12:31:32;97396.44;;;22.63
13410;BMP180;6775;49.574;11.170;2023-08-08T12:34:01;97401.47;;;22.64
13410;BMP180;6775;49.574;11.170;2023-08-08T12:36:28;97390.22;;;22.77
13410;BMP180;6775;49.574;11.170;2023-08-08T12:38:58;97394.44;;;22.90
13410;BMP180;6775;49.574;11.170;2023-08-08T12:41:26;97396.72;;;23.06
13410;BMP180;6775;49.574;11.170;2023-08-08T12:43:56;97384.00;;;23.16
13410;BMP180;6775;49.574;11.170;2023-08-08T12:46:24;97387.03;;;23.26
13410;BMP180;6775;49.574;11.170;2023-08-08T12:48:52;97405.19;;;23.34
13410;BMP180;6775;49.574;11.170;2023-08-08T12:51:20;97398.31;;;23.33
13410;BMP180;6775;49.574;11.170;2023-08-08T12:53:50;97399.53;;;23.37
13410;BMP180;6775;49.574;11.170;2023-08-08T12:56:19;97381.59;;;23.34
13410;BMP180;6775;49.574;11.170;2023-08-08T12:58:47;97395.50;;;23.41
13410;BMP180;6775;49.574;11.170;2023-08-08T13:01:16;97387.41;;;23.49
13410;BMP180;6775;49.574;11.170;2023-08-08T13:03:44;97390.03;;;23.55
13410;BMP180;6775;49.574;11.170;2023-08-08T13:06:29;97388.25;;;23.43
13410;BMP180;6775;49.574;11.170;2023-08-08T13:08:56;97386.44;;;23.24
13410;BMP180;6775;49.574;11.170;2023-08-08T13:11:26;97390.06;;;23.17
13410;BMP180;6775;49.574;11.170;2023-08-08T13:13:54;97384.03;;;23.10
13410;BMP180;6775;49.574;11.170;2023-08-08T13:16:22;97381.41;;;23.10
13410;BMP180;6775;49.574;11.170;2023-08-08T13:18:50;97380.16;;;23.12
13410;BMP180;6775;49.574;11.170;2023-08-08T13:21:18;97377.78;;;23.04
13410;BMP180;6775;49.574;11.170;2023-08-08T13:23:46;97370.09;;;22.96
13410;BMP180;6775;49.574;11.170;2023-08-08T13:26:14;97377.72;;;22.85
13410;BMP180;6775;49.574;11.170;2023-08-08T13:28:45;97382.97;;;22.85
13410;BMP180;6775;49.574;11.170;2023-08-08T13:31:13;97371.69;;;22.91
13410;BMP180;6775;49.574;11.170;2023-08-08T13:33:42;97379.38;;;23.05
13410;BMP180;6775;49.574;11.170;2023-08-08T13:36:10;97370.09;;;23.09
13410;BMP180;6775;49.574;11.170;2023-08-08T13:38:38;97376.16;;;23.16
13410;BMP180;6775;49.574;11.170;2023-08-08T13:41:06;97365.25;;;23.19
13410;BMP180;6775;49.574;11.170;2023-08-08T13:43:34;97371.53;;;23.18
13410;BMP180;6775;49.574;11.170;2023-08-08T13:46:03;97365.63;;;22.90
13410;BMP180;6775;49.574;11.170;2023-08-08T13:48:34;97364.41;;;22.86
13410;BMP180;6775;49.574;11.170;2023-08-08T13:51:03;97358.00;;;22.95
13410;BMP180;6775;49.574;11.170;2023-08-08T13:53:30;97362.44;;;23.01
13410;BMP180;6775;49.574;11.170;2023-08-08T13:55:58;97359.59;;;22.96
13410;BMP180;6775;49.574;11.170;2023-08-08T13:58:28;97366.66;;;22.89
13410;BMP180;6775;49.574;11.170;2023-08-08T14:00:56;97354.97;;;22.85
13410;BMP180;6775;49.574;11.170;2023-08-08T14:03:25;97357.16;;;22.82
13410;BMP180;6775;49.574;11.170;2023-08-08T14:05:53;97362.78;;;22.79
13410;BMP180;6775;49.574;11.170;2023-08-08T14:08:21;97354.53;;;22.82
13410;BMP180;6775;49.574;11.170;2023-08-08T14:10:49;97352.75;;;22.82
13410;BMP180;6775;49.574;11.170;2023-08-08T14:13:17;97347.91;;;22.80
13410;BMP180;6775;49.574;11.170;2023-08-08T14:15:46;97359.97;;;22.74
13410;BMP180;6775;49.574;11.170;2023-08-08T14:18:14;97359.75;;;22.63
13410;BMP180;6775;49.574;11.170;2023-08-08T14:20:43;97362.13;;;22.45